createdAt,value
2023-03-13T00:02:23.604Z,56.99
2023-03-13T00:04:52.049Z,56.96
2023-03-13T00:07:30.959Z,57.01
2023-03-13T00:10:18.992Z,57.06
2023-03-13T00:12:47.974Z,57.15
2023-03-13T00:15:18.295Z,57.11
2023-03-13T00:17:50.455Z,57.13
2023-03-13T00:20:19.867Z,57.29
2023-03-13T00:22:53.328Z,57.35
2023-03-13T00:25:21.575Z,57.52
2023-03-13T00:27:50.737Z,57.78
2023-03-13T00:30:23.105Z,57.69
2023-03-13T00:32:56.628Z,57.86
2023-03-13T00:35:25.442Z,57.88
2023-03-13T00:37:54.825Z,57.89
2023-03-13T00:40:27.493Z,58.01
2023-03-13T00:42:57.984Z,58.03
2023-03-13T00:45:27.623Z,57.97
2023-03-13T00:47:56.414Z,58.14
2023-03-13T00:50:28.892Z,58.20
2023-03-13T00:52:57.768Z,58.29
2023-03-13T00:55:25.834Z,58.06
2023-03-13T00:57:55.253Z,57.87
2023-03-13T01:00:24.349Z,57.77
2023-03-13T01:02:54.851Z,57.57
2023-03-13T01:05:23.360Z,57.46
2023-03-13T01:07:52.975Z,57.35
2023-03-13T01:10:27.085Z,57.25
2023-03-13T01:12:55.682Z,57.29
2023-03-13T01:15:24.562Z,57.33
2023-03-13T01:17:55.015Z,57.36
2023-03-13T01:20:27.165Z,57.47
2023-03-13T01:22:55.321Z,57.59
2023-03-13T01:25:26.690Z,57.57
2023-03-13T01:27:55.062Z,57.71
2023-03-13T01:30:24.058Z,57.90
2023-03-13T01:32:57.392Z,57.91
2023-03-13T01:35:26.782Z,58.07
2023-03-13T01:37:56.870Z,58.20
2023-03-13T01:40:25.772Z,58.29
2023-03-13T01:42:58.752Z,58.34
2023-03-13T01:45:57.748Z,58.46
2023-03-13T01:48:37.112Z,58.39
2023-03-13T01:51:13.634Z,58.39
2023-03-13T01:53:43.474Z,58.40
2023-03-13T01:56:23.530Z,58.30
2023-03-13T01:58:52.412Z,58.18
2023-03-13T02:01:20.744Z,58.11
2023-03-13T02:03:51.430Z,57.99
2023-03-13T02:06:19.669Z,57.92
2023-03-13T02:08:54.635Z,58.03
2023-03-13T02:11:28.339Z,58.05
2023-03-13T02:13:57.680Z,58.11
2023-03-13T02:16:26.696Z,58.28
2023-03-13T02:18:55.840Z,58.22
2023-03-13T02:21:43.239Z,58.03
2023-03-13T02:24:14.497Z,57.88
2023-03-13T02:26:42.978Z,57.50
2023-03-13T02:29:18.700Z,57.17
2023-03-13T02:31:48.390Z,56.99
2023-03-13T02:34:20.097Z,56.95
2023-03-13T02:36:49.012Z,56.91
2023-03-13T02:39:17.755Z,56.75
2023-03-13T02:41:46.248Z,56.76
2023-03-13T02:44:14.945Z,56.92
2023-03-13T02:46:48.982Z,56.93
2023-03-13T02:49:23.695Z,57.12
2023-03-13T02:51:58.507Z,57.26
2023-03-13T02:54:34.404Z,57.40
2023-03-13T02:57:04.263Z,57.44
2023-03-13T02:59:32.464Z,57.45
2023-03-13T03:02:01.888Z,57.64
2023-03-13T03:04:30.867Z,57.70
2023-03-13T03:06:59.863Z,57.80
2023-03-13T03:09:28.847Z,58.03
2023-03-13T03:12:03.176Z,57.96
2023-03-13T03:14:31.855Z,58.03
2023-03-13T03:17:00.652Z,57.94
2023-03-13T03:19:31.606Z,57.89
2023-03-13T03:22:00.276Z,57.94
2023-03-13T03:24:28.751Z,57.97
2023-03-13T03:26:57.535Z,58.09
2023-03-13T03:29:29.397Z,58.20
2023-03-13T03:31:58.062Z,58.34
2023-03-13T03:34:26.831Z,58.37
2023-03-13T03:36:56.269Z,58.47
2023-03-13T03:39:25.170Z,58.62
2023-03-13T03:41:54.572Z,58.64
2023-03-13T03:44:23.045Z,58.85
2023-03-13T03:46:58.641Z,59.05
2023-03-13T03:49:28.518Z,59.30
2023-03-13T03:51:57.396Z,59.36
2023-03-13T03:54:30.705Z,59.43
2023-03-13T03:56:59.486Z,59.26
2023-03-13T03:59:33.085Z,59.27
2023-03-13T04:02:07.561Z,59.13
2023-03-13T04:04:36.502Z,58.88
2023-03-13T04:07:23.335Z,58.91
2023-03-13T04:09:52.213Z,58.98
2023-03-13T04:12:26.420Z,58.90
2023-03-13T04:14:57.073Z,58.71
2023-03-13T04:17:25.383Z,58.80
2023-03-13T04:19:54.472Z,58.88
2023-03-13T04:22:23.115Z,58.96
2023-03-13T04:24:56.210Z,58.99
2023-03-13T04:27:25.508Z,59.08
2023-03-13T04:29:53.881Z,59.06
2023-03-13T04:32:41.648Z,59.06
2023-03-13T04:35:28.845Z,59.19
2023-03-13T04:38:16.059Z,58.70
2023-03-13T04:41:14.747Z,58.44
2023-03-13T04:44:00.944Z,58.64
2023-03-13T04:47:00.868Z,58.99
2023-03-13T04:49:42.041Z,59.10
2023-03-13T04:52:33.403Z,59.09
2023-03-13T04:55:15.052Z,59.11
2023-03-13T04:58:03.608Z,58.93
2023-03-13T05:00:41.502Z,59.11
2023-03-13T05:03:23.311Z,59.01
2023-03-13T05:06:12.721Z,58.98
2023-03-13T05:09:09.769Z,58.87
2023-03-13T05:12:02.883Z,58.57
2023-03-13T05:14:57.169Z,58.54
2023-03-13T05:17:45.823Z,58.36
2023-03-13T05:20:32.749Z,58.05
2023-03-13T05:23:20.573Z,57.91
2023-03-13T05:26:11.745Z,57.46
2023-03-13T05:28:52.556Z,57.30
2023-03-13T05:31:36.295Z,57.29
2023-03-13T05:34:40.522Z,57.13
2023-03-13T05:37:40.859Z,57.07
2023-03-13T05:40:33.137Z,56.69
2023-03-13T05:43:13.280Z,56.72
2023-03-13T05:46:05.021Z,56.66
2023-03-13T05:48:53.414Z,56.49
2023-03-13T05:51:52.075Z,56.19
2023-03-13T05:54:41.886Z,56.04
2023-03-13T05:57:23.675Z,55.80
2023-03-13T06:00:05.170Z,55.71
2023-03-13T06:02:44.602Z,55.58
2023-03-13T06:05:18.403Z,55.61
2023-03-13T06:07:49.751Z,55.32
2023-03-13T06:10:18.238Z,55.30
2023-03-13T06:12:53.177Z,55.23
2023-03-13T06:15:22.468Z,55.14
2023-03-13T06:18:19.526Z,54.84
2023-03-13T06:20:49.189Z,54.67
2023-03-13T06:23:17.291Z,54.73
2023-03-13T06:25:48.523Z,54.55
2023-03-13T06:28:17.044Z,54.29
2023-03-13T06:30:45.615Z,54.13
2023-03-13T06:33:14.493Z,53.75
2023-03-13T06:35:55.798Z,53.71
2023-03-13T06:38:25.704Z,53.53
2023-03-13T06:40:55.826Z,53.12
2023-03-13T06:43:24.509Z,53.26
2023-03-13T06:45:53.199Z,53.21
2023-03-13T06:48:23.210Z,52.57
2023-03-13T06:50:51.591Z,52.29
2023-03-13T06:53:20.803Z,52.73
2023-03-13T06:55:51.730Z,52.38
2023-03-13T06:58:31.627Z,52.17
2023-03-13T07:01:07.079Z,51.73
2023-03-13T07:03:36.146Z,51.60
2023-03-13T07:06:06.062Z,51.74
2023-03-13T07:08:34.633Z,51.87
2023-03-13T07:11:08.022Z,51.85
2023-03-13T07:13:38.242Z,51.61
2023-03-13T07:16:08.396Z,51.06
2023-03-13T07:18:42.276Z,51.04
2023-03-13T07:21:11.126Z,51.21
2023-03-13T07:23:39.548Z,50.97
2023-03-13T07:26:10.637Z,50.98
2023-03-13T07:28:39.679Z,51.15
2023-03-13T07:31:13.359Z,51.23
2023-03-13T07:33:45.037Z,50.96
2023-03-13T07:36:15.970Z,50.93
2023-03-13T07:38:50.925Z,51.13
2023-03-13T07:41:20.215Z,50.98
2023-03-13T07:43:50.166Z,50.92
2023-03-13T07:46:20.050Z,50.59
2023-03-13T07:48:51.189Z,50.66
2023-03-13T07:51:36.925Z,50.60
2023-03-13T07:54:16.221Z,49.73
2023-03-13T07:56:45.624Z,49.47
2023-03-13T07:59:13.882Z,49.78
2023-03-13T08:01:42.363Z,49.48
2023-03-13T08:04:13.217Z,48.61
2023-03-13T08:06:47.619Z,48.56
2023-03-13T08:09:16.001Z,48.35
2023-03-13T08:11:46.989Z,48.12
2023-03-13T08:14:15.217Z,47.85
2023-03-13T08:16:44.910Z,47.79
2023-03-13T08:19:13.110Z,48.25
2023-03-13T08:21:42.192Z,48.48
2023-03-13T08:24:11.455Z,48.83
2023-03-13T08:26:42.025Z,48.29
2023-03-13T08:29:12.446Z,47.86
2023-03-13T08:31:48.044Z,47.42
2023-03-13T08:34:17.704Z,47.01
2023-03-13T08:36:46.294Z,47.14
2023-03-13T08:39:15.994Z,46.89
2023-03-13T08:41:45.046Z,46.70
2023-03-13T08:44:14.702Z,46.64
2023-03-13T08:46:44.223Z,46.74
2023-03-13T08:49:13.709Z,46.59
2023-03-13T08:51:42.633Z,45.82
2023-03-13T08:54:10.795Z,45.34
2023-03-13T08:56:41.412Z,44.99
2023-03-13T08:59:10.530Z,44.60
2023-03-13T09:01:38.998Z,44.78
2023-03-13T09:04:08.492Z,43.96
2023-03-13T09:06:37.808Z,43.26
2023-03-13T09:09:07.319Z,43.31
2023-03-13T09:11:42.346Z,43.69
2023-03-13T09:14:10.747Z,43.92
2023-03-13T09:16:39.052Z,44.37
2023-03-13T09:19:07.481Z,44.18
2023-03-13T09:21:41.912Z,43.64
2023-03-13T09:24:11.011Z,44.12
2023-03-13T09:26:42.700Z,44.92
2023-03-13T09:29:14.928Z,44.80
2023-03-13T09:31:43.387Z,44.67
2023-03-13T09:34:12.197Z,43.69
2023-03-13T09:36:41.496Z,43.43
2023-03-13T09:39:09.558Z,43.00
2023-03-13T09:42:11.432Z,42.86
2023-03-13T09:45:04.802Z,43.09
2023-03-13T09:47:46.899Z,43.62
2023-03-13T09:50:25.836Z,43.70
2023-03-13T09:52:57.104Z,43.04
2023-03-13T09:55:35.280Z,43.01
2023-03-13T09:58:25.675Z,42.56
2023-03-13T10:01:04.567Z,42.32
2023-03-13T10:04:21.696Z,42.63
2023-03-13T10:06:50.106Z,42.27
2023-03-13T10:09:33.952Z,41.97
2023-03-13T10:12:19.146Z,41.26
2023-03-13T10:14:58.578Z,40.85
2023-03-13T10:17:37.791Z,40.84
2023-03-13T10:20:34.229Z,40.77
2023-03-13T10:23:15.220Z,40.94
2023-03-13T10:25:43.984Z,41.06
2023-03-13T10:28:13.861Z,40.97
2023-03-13T10:31:08.766Z,41.49
2023-03-13T10:33:37.436Z,41.08
2023-03-13T10:36:11.152Z,40.76
2023-03-13T10:38:50.442Z,40.76
2023-03-13T10:41:45.020Z,40.87
2023-03-13T10:44:15.885Z,40.31
2023-03-13T10:46:46.577Z,40.68
2023-03-13T10:49:20.027Z,40.82
2023-03-13T10:51:55.760Z,40.81
2023-03-13T10:54:29.698Z,40.57
2023-03-13T10:57:20.766Z,39.94
2023-03-13T10:59:52.422Z,40.14
2023-03-13T11:15:57.584Z,39.97
2023-03-13T11:18:31.476Z,39.90
2023-03-13T11:21:15.695Z,39.32
2023-03-13T11:23:50.132Z,39.30
2023-03-13T11:26:23.466Z,39.13
2023-03-13T11:29:18.193Z,38.79
2023-03-13T11:31:51.875Z,37.99
2023-03-13T11:34:25.875Z,38.17
2023-03-13T11:37:02.590Z,38.16
2023-03-13T11:39:52.600Z,38.28
2023-03-13T11:42:39.519Z,38.17
2023-03-13T11:45:34.224Z,38.66
2023-03-13T11:48:08.979Z,38.78
2023-03-13T11:50:47.655Z,38.60
2023-03-13T11:53:46.708Z,38.33
2023-03-13T11:56:24.263Z,38.35
2023-03-13T11:59:27.444Z,37.40
2023-03-13T12:02:19.131Z,37.96
2023-03-13T12:05:19.841Z,38.25
2023-03-13T12:08:00.477Z,37.44
2023-03-13T12:10:36.024Z,37.52
2023-03-13T12:13:04.200Z,37.92
2023-03-13T12:15:39.435Z,38.16
2023-03-13T12:18:20.012Z,38.16
2023-03-13T12:21:36.842Z,38.35
2023-03-13T12:24:39.605Z,38.50
2023-03-13T12:27:34.607Z,38.35
2023-03-13T12:30:14.970Z,38.36
2023-03-13T12:32:57.032Z,37.87
2023-03-13T12:35:33.398Z,38.02
2023-03-13T12:38:25.386Z,37.50
2023-03-13T12:41:08.698Z,37.29
2023-03-13T12:43:39.954Z,37.56
2023-03-13T12:46:36.288Z,37.48
2023-03-13T12:49:18.601Z,37.35
2023-03-13T12:52:26.409Z,37.38
2023-03-13T12:55:00.503Z,37.46
2023-03-13T12:57:55.161Z,37.72
2023-03-13T13:00:25.457Z,38.18
2023-03-13T13:03:39.063Z,38.28
2023-03-13T13:06:16.554Z,38.26
2023-03-13T13:08:54.466Z,38.33
2023-03-13T13:11:37.908Z,38.51
2023-03-13T13:14:19.079Z,37.63
2023-03-13T13:17:16.262Z,37.58
2023-03-13T13:19:46.376Z,37.75
2023-03-13T13:22:37.000Z,38.17
2023-03-13T13:25:08.392Z,38.43
2023-03-13T13:27:37.183Z,38.44
2023-03-13T13:30:17.752Z,38.43
2023-03-13T13:32:46.099Z,38.37
2023-03-13T13:35:20.546Z,38.20
2023-03-13T13:37:49.607Z,38.42
2023-03-13T13:40:24.151Z,38.33
2023-03-13T13:42:56.327Z,38.54
2023-03-13T13:45:45.906Z,38.39
2023-03-13T13:48:34.372Z,38.46
2023-03-13T13:51:11.646Z,38.44
2023-03-13T13:53:56.305Z,38.72
2023-03-13T13:56:28.017Z,38.96
2023-03-13T13:59:03.240Z,38.76
2023-03-13T14:01:31.851Z,38.17
2023-03-13T14:04:41.143Z,37.97
2023-03-13T14:07:19.345Z,38.21
2023-03-13T14:10:10.064Z,38.36
2023-03-13T14:12:39.565Z,38.63
2023-03-13T14:15:29.126Z,38.74
2023-03-13T14:18:16.040Z,38.76
2023-03-13T14:20:50.561Z,38.56
2023-03-13T14:23:45.134Z,38.76
2023-03-13T14:26:13.644Z,39.07
2023-03-13T14:28:43.472Z,38.86
2023-03-13T14:31:22.494Z,39.17
2023-03-13T14:33:50.869Z,39.19
2023-03-13T14:36:19.241Z,39.27
2023-03-13T14:38:55.124Z,39.38
2023-03-13T14:41:33.260Z,39.65
2023-03-13T14:44:06.328Z,39.83
2023-03-13T14:46:36.440Z,39.72
2023-03-13T14:49:25.906Z,39.81
2023-03-13T14:52:20.789Z,39.79
2023-03-13T14:55:02.588Z,39.71
2023-03-13T14:57:31.164Z,39.89
2023-03-13T15:00:29.751Z,39.99
2023-03-13T15:03:21.687Z,40.26
2023-03-13T15:06:07.878Z,40.48
2023-03-13T15:08:37.141Z,40.55
2023-03-13T15:11:22.872Z,40.73
2023-03-13T15:13:51.753Z,40.79
2023-03-13T15:16:21.738Z,40.88
2023-03-13T15:18:50.666Z,41.11
2023-03-13T15:21:24.276Z,41.24
2023-03-13T15:23:56.843Z,41.51
2023-03-13T15:26:25.129Z,41.67
2023-03-13T15:28:53.616Z,41.58
2023-03-13T15:31:25.421Z,41.65
2023-03-13T15:33:59.176Z,41.72
2023-03-13T15:36:30.871Z,41.84
2023-03-13T15:38:58.998Z,41.94
2023-03-13T15:41:27.694Z,42.06
2023-03-13T15:43:57.223Z,42.33
2023-03-13T15:46:25.744Z,42.46
2023-03-13T15:48:55.796Z,42.62
2023-03-13T15:51:24.168Z,42.71
2023-03-13T15:53:53.683Z,42.79
2023-03-13T15:56:25.448Z,42.82
2023-03-13T15:58:54.645Z,42.75
2023-03-13T16:01:23.581Z,42.86
2023-03-13T16:03:52.006Z,42.88
2023-03-13T16:06:31.013Z,43.10
2023-03-13T16:09:01.396Z,43.26
2023-03-13T16:11:30.043Z,43.20
2023-03-13T16:14:00.577Z,43.19
2023-03-13T16:16:31.374Z,43.21
2023-03-13T16:19:00.526Z,43.24
2023-03-13T16:21:30.532Z,43.33
2023-03-13T16:23:59.116Z,43.40
2023-03-13T16:26:29.327Z,43.42
2023-03-13T16:28:58.253Z,43.33
2023-03-13T16:31:28.486Z,43.44
2023-03-13T16:33:57.078Z,43.53
2023-03-13T16:36:28.736Z,43.68
2023-03-13T16:38:58.190Z,43.82
2023-03-13T16:41:27.794Z,44.00
2023-03-13T16:43:56.108Z,44.21
2023-03-13T16:46:30.832Z,44.29
2023-03-13T16:48:59.835Z,44.25
2023-03-13T16:51:28.689Z,44.48
2023-03-13T16:53:57.735Z,44.55
2023-03-13T16:56:30.568Z,44.41
2023-03-13T16:58:59.253Z,44.58
2023-03-13T17:01:30.122Z,44.74
2023-03-13T17:03:58.702Z,44.83
2023-03-13T17:06:29.409Z,44.93
2023-03-13T17:09:04.762Z,45.05
2023-03-13T17:11:34.051Z,45.19
2023-03-13T17:14:03.960Z,45.32
2023-03-13T17:16:33.830Z,45.30
2023-03-13T17:19:03.404Z,45.54
2023-03-13T17:21:35.143Z,45.62
2023-03-13T17:24:03.521Z,45.63
2023-03-13T17:26:36.819Z,45.77
2023-03-13T17:29:05.814Z,45.81
2023-03-13T17:31:38.612Z,45.94
2023-03-13T17:34:10.713Z,45.99
2023-03-13T17:36:40.161Z,46.24
2023-03-13T17:39:10.896Z,46.20
2023-03-13T17:41:39.789Z,46.26
2023-03-13T17:44:08.068Z,46.37
2023-03-13T17:46:39.373Z,46.54
2023-03-13T17:49:08.098Z,46.66
2023-03-13T17:51:36.590Z,46.69
2023-03-13T17:54:05.600Z,46.58
2023-03-13T17:56:39.288Z,46.74
2023-03-13T17:59:13.911Z,46.94
2023-03-13T18:01:42.466Z,47.04
2023-03-13T18:04:12.412Z,47.12
2023-03-13T18:06:47.547Z,47.22
2023-03-13T18:09:20.945Z,47.32
2023-03-13T18:11:50.763Z,47.39
2023-03-13T18:14:19.745Z,47.60
2023-03-13T18:16:48.966Z,47.69
2023-03-13T18:19:23.167Z,47.86
2023-03-13T18:21:55.431Z,47.96
2023-03-13T18:24:28.224Z,48.01
2023-03-13T18:26:56.494Z,48.10
2023-03-13T18:29:29.440Z,48.26
2023-03-13T18:32:00.529Z,48.21
2023-03-13T18:34:28.920Z,48.31
2023-03-13T18:36:57.181Z,48.26
2023-03-13T18:39:25.563Z,48.21
2023-03-13T18:41:54.156Z,48.26
2023-03-13T18:44:24.376Z,48.38
2023-03-13T18:46:53.266Z,48.31
2023-03-13T18:49:22.250Z,48.33
2023-03-13T18:51:51.575Z,48.48
2023-03-13T18:54:19.926Z,48.63
2023-03-13T18:56:48.962Z,48.76
2023-03-13T18:59:21.277Z,48.72
2023-03-13T19:01:49.406Z,48.74
2023-03-13T19:04:17.859Z,48.85
2023-03-13T19:06:46.331Z,48.94
2023-03-13T19:09:41.012Z,49.11
2023-03-13T19:12:05.209Z,49.13
2023-03-13T19:14:34.109Z,49.25
2023-03-13T19:17:02.375Z,49.32
2023-03-13T19:19:32.393Z,49.34
2023-03-13T19:22:01.180Z,49.38
2023-03-13T19:24:29.789Z,49.44
2023-03-13T19:26:59.804Z,49.37
2023-03-13T19:29:28.708Z,49.39
2023-03-13T19:31:59.313Z,49.53
2023-03-13T19:34:28.098Z,49.58
2023-03-13T19:36:56.383Z,49.62
2023-03-13T19:39:27.518Z,49.63
2023-03-13T19:41:57.145Z,49.84
2023-03-13T19:44:30.113Z,49.87
2023-03-13T19:46:58.900Z,49.89
2023-03-13T19:49:27.090Z,49.96
2023-03-13T19:51:55.562Z,49.90
2023-03-13T19:54:24.695Z,49.95
2023-03-13T19:56:53.960Z,49.85
2023-03-13T19:59:23.724Z,49.86
2023-03-13T20:01:51.982Z,49.91
2023-03-13T20:04:20.830Z,49.97
2023-03-13T20:06:49.212Z,49.83
2023-03-13T20:09:18.397Z,49.99
2023-03-13T20:11:46.583Z,49.94
2023-03-13T20:14:16.482Z,50.02
2023-03-13T20:16:47.641Z,49.99
2023-03-13T20:19:16.001Z,50.04
2023-03-13T20:21:44.400Z,49.98
2023-03-13T20:24:12.787Z,49.92
2023-03-13T20:26:41.277Z,49.98
2023-03-13T20:29:10.113Z,49.92
2023-03-13T20:31:39.148Z,50.11
2023-03-13T20:34:09.988Z,50.20
2023-03-13T20:36:39.090Z,50.37
2023-03-13T20:39:08.491Z,50.29
2023-03-13T20:41:37.785Z,50.29
2023-03-13T20:44:05.961Z,50.39
2023-03-13T20:46:35.623Z,50.33
2023-03-13T20:49:03.840Z,50.46
2023-03-13T20:51:34.985Z,50.48
2023-03-13T20:54:03.261Z,50.57
2023-03-13T20:56:31.436Z,50.53
2023-03-13T20:58:59.712Z,50.58
2023-03-13T21:01:29.848Z,50.64
2023-03-13T21:03:59.690Z,50.73
2023-03-13T21:06:27.772Z,50.83
2023-03-13T21:08:56.150Z,50.70
2023-03-13T21:11:25.127Z,50.88
2023-03-13T21:13:53.779Z,50.89
2023-03-13T21:16:25.639Z,50.95
2023-03-13T21:18:54.726Z,51.09
2023-03-13T21:21:22.956Z,51.11
2023-03-13T21:23:53.653Z,51.11
2023-03-13T21:26:22.551Z,51.14
2023-03-13T21:28:52.998Z,51.29
2023-03-13T21:31:21.428Z,51.40
2023-03-13T21:33:49.871Z,51.42
2023-03-13T21:36:21.099Z,51.55
2023-03-13T21:38:50.271Z,51.68
2023-03-13T21:41:24.385Z,51.63
2023-03-13T21:43:53.269Z,51.70
2023-03-13T21:46:22.835Z,51.84
2023-03-13T21:48:52.625Z,51.79
2023-03-13T21:51:20.969Z,51.88
2023-03-13T21:53:49.489Z,52.03
2023-03-13T21:56:18.441Z,52.01
2023-03-13T21:58:46.829Z,52.03
2023-03-13T22:01:16.316Z,52.07
2023-03-13T22:03:44.787Z,52.11
2023-03-13T22:06:15.138Z,52.21
2023-03-13T22:08:50.787Z,52.13
2023-03-13T22:11:21.727Z,52.20
2023-03-13T22:13:51.553Z,52.30
2023-03-13T22:16:21.096Z,52.38
2023-03-13T22:18:51.776Z,52.51
2023-03-13T22:21:20.272Z,52.48
2023-03-13T22:23:48.432Z,52.51
2023-03-13T22:26:17.014Z,52.63
2023-03-13T22:28:45.438Z,52.63
2023-03-13T22:31:18.838Z,52.67
2023-03-13T22:33:47.986Z,52.73
2023-03-13T22:36:16.305Z,52.86
2023-03-13T22:38:44.950Z,52.85
2023-03-13T22:41:13.447Z,52.77
2023-03-13T22:43:41.552Z,52.89
2023-03-13T22:46:14.035Z,52.96
2023-03-13T22:48:42.664Z,52.96
2023-03-13T22:51:12.122Z,53.05
2023-03-13T22:53:41.578Z,53.12
2023-03-13T22:56:12.962Z,53.07
2023-03-13T22:58:42.972Z,53.06
2023-03-13T23:01:19.240Z,53.09
2023-03-13T23:03:50.966Z,53.09
2023-03-13T23:06:20.571Z,53.28
2023-03-13T23:08:49.258Z,53.26
2023-03-13T23:11:17.946Z,53.32
2023-03-13T23:13:50.761Z,53.33
2023-03-13T23:16:20.747Z,53.23
2023-03-13T23:18:48.844Z,53.34
2023-03-13T23:23:21.517Z,53.80
2023-03-13T23:25:49.934Z,53.29
2023-03-13T23:28:19.397Z,53.21
2023-03-13T23:30:47.983Z,53.37
2023-03-13T23:33:20.246Z,53.28
2023-03-13T23:35:48.862Z,53.31
2023-03-13T23:38:18.540Z,53.22
2023-03-13T23:40:46.605Z,53.22
2023-03-13T23:43:14.997Z,53.12
2023-03-13T23:45:43.122Z,53.14
2023-03-13T23:48:12.064Z,53.16
2023-03-13T23:50:40.344Z,53.19
2023-03-13T23:53:08.414Z,53.06
2023-03-13T23:55:36.498Z,53.07
2023-03-13T23:58:05.277Z,53.15
